Time;durP1;ratioP1;P1;durP2;ratioP2;P2;SDS_P1;SDS_P2;PMS_P1;PMS_P2;Temp;Humidity;BMP_temperature;BMP_pressure;BME280_temperature;BME280_humidity;BME280_pressure;Samples;Min_cycle;Max_cycle;Signal;HPM_P1;HPM_P2
2024/01/08 00:00:35;;;;;;;9.60;5.60;;;-0.50;19.80;;;;;;5067667;28;21180;-66
2024/01/08 00:03:02;;;;;;;6.87;4.73;;;-0.50;19.80;;;;;;5066260;28;20541;-67
2024/01/08 00:05:30;;;;;;;9.57;5.33;;;-0.60;19.50;;;;;;5066571;28;20983;-66
2024/01/08 00:07:57;;;;;;;9.60;5.47;;;-0.60;19.50;;;;;;5066906;28;20481;-66
2024/01/08 00:10:24;;;;;;;8.40;5.30;;;-0.60;19.80;;;;;;5065438;28;20469;-66
2024/01/08 00:12:51;;;;;;;9.37;6.20;;;-0.60;19.90;;;;;;5067663;28;20465;-66
2024/01/08 00:15:17;;;;;;;8.70;5.23;;;-0.70;20.00;;;;;;5066989;28;20484;-66
2024/01/08 00:17:44;;;;;;;10.13;6.53;;;-0.60;19.70;;;;;;5067531;28;20714;-66
2024/01/08 00:20:12;;;;;;;9.10;5.07;;;-0.70;19.90;;;;;;5065396;28;20531;-67
2024/01/08 00:22:40;;;;;;;8.30;5.57;;;-0.70;19.70;;;;;;5067474;28;20976;-67
2024/01/08 00:25:07;;;;;;;8.50;5.07;;;-0.70;19.60;;;;;;5063258;28;20473;-66
2024/01/08 00:27:34;;;;;;;8.53;4.93;;;-0.80;19.60;;;;;;5091644;28;20500;-66
2024/01/08 00:30:01;;;;;;;8.70;5.40;;;-0.70;19.50;;;;;;5085691;28;20457;-67
2024/01/08 00:32:27;;;;;;;8.50;4.63;;;-0.80;19.50;;;;;;5067798;28;21107;-66
2024/01/08 00:34:54;;;;;;;9.57;5.23;;;-0.70;19.50;;;;;;5067409;28;20491;-66
2024/01/08 00:37:21;;;;;;;7.83;4.83;;;-0.70;19.50;;;;;;5067680;28;20485;-66
2024/01/08 00:39:49;;;;;;;10.23;5.37;;;-0.80;19.70;;;;;;5071722;22;20510;-67
2024/01/08 00:42:15;;;;;;;8.20;4.30;;;-0.70;19.80;;;;;;5048865;28;20470;-67
2024/01/08 00:44:42;;;;;;;15.67;5.00;;;-0.70;19.90;;;;;;5041110;28;20996;-67
2024/01/08 00:47:09;;;;;;;8.23;5.53;;;-0.70;19.70;;;;;;5041773;28;20482;-67
2024/01/08 00:49:35;;;;;;;7.60;5.27;;;-0.70;19.50;;;;;;5048681;28;20476;-68
2024/01/08 00:52:02;;;;;;;9.97;5.07;;;-0.70;19.20;;;;;;5045392;28;20466;-67
2024/01/08 00:54:29;;;;;;;7.87;4.70;;;-0.70;18.90;;;;;;5043486;28;20482;-67
2024/01/08 00:56:57;;;;;;;8.70;4.73;;;-0.70;18.80;;;;;;5043426;28;20489;-67
2024/01/08 00:59:24;;;;;;;8.50;5.00;;;-0.70;18.70;;;;;;5043921;28;20497;-67
2024/01/08 01:01:51;;;;;;;7.60;4.50;;;-0.60;18.30;;;;;;5043059;28;20472;-70
2024/01/08 01:04:17;;;;;;;8.70;4.53;;;-0.70;18.30;;;;;;5044849;28;20450;-67
2024/01/08 01:06:45;;;;;;;8.30;5.23;;;-0.60;18.90;;;;;;5043587;28;21550;-67
2024/01/08 01:09:11;;;;;;;8.73;4.17;;;-0.60;18.10;;;;;;5044658;28;20489;-67
2024/01/08 01:11:38;;;;;;;8.83;5.00;;;-0.70;18.10;;;;;;5046182;28;20450;-67
2024/01/08 01:14:06;;;;;;;8.63;4.73;;;-0.70;18.00;;;;;;5047065;28;20531;-67
2024/01/08 01:16:33;;;;;;;8.97;4.60;;;-0.70;17.70;;;;;;5046716;28;20478;-67
2024/01/08 01:19:00;;;;;;;7.53;4.70;;;-0.70;18.00;;;;;;5042800;28;20549;-67
2024/01/08 01:21:28;;;;;;;7.70;4.27;;;-0.70;18.20;;;;;;5045787;28;20461;-67
2024/01/08 01:23:54;;;;;;;7.57;4.30;;;-0.70;17.70;;;;;;5044617;28;20834;-67
2024/01/08 01:26:21;;;;;;;7.40;4.07;;;-0.70;17.60;;;;;;5043826;28;20478;-67
2024/01/08 01:28:48;;;;;;;8.03;4.47;;;-0.70;17.50;;;;;;5044959;28;20451;-67
2024/01/08 01:31:16;;;;;;;6.20;3.67;;;-0.70;17.70;;;;;;5044911;28;20470;-67
2024/01/08 01:33:43;;;;;;;7.70;4.30;;;-0.70;17.90;;;;;;5044092;28;20474;-67
2024/01/08 01:36:10;;;;;;;7.87;4.30;;;-0.70;18.40;;;;;;5045677;28;20465;-67
2024/01/08 01:38:36;;;;;;;6.90;4.10;;;-0.70;18.10;;;;;;5044710;28;20470;-68
2024/01/08 01:41:03;;;;;;;8.93;4.37;;;-0.70;17.70;;;;;;5044805;28;20488;-67
2024/01/08 01:43:30;;;;;;;7.90;4.23;;;-0.60;17.60;;;;;;5045262;28;20489;-67
2024/01/08 01:46:00;;;;;;;7.80;4.43;;;-0.60;17.70;;;;;;5047512;28;20504;-67
2024/01/08 01:48:28;;;;;;;7.50;4.60;;;-0.70;17.20;;;;;;5049150;28;20957;-67
2024/01/08 01:50:55;;;;;;;7.97;4.40;;;-0.70;17.30;;;;;;5048177;28;20464;-67
2024/01/08 01:53:22;;;;;;;8.50;5.10;;;-0.70;17.00;;;;;;5049720;28;20469;-67
2024/01/08 01:55:49;;;;;;;9.30;6.00;;;-0.70;16.70;;;;;;5043903;28;20490;-67
2024/01/08 01:58:17;;;;;;;8.70;4.60;;;-0.70;16.30;;;;;;5044119;28;20485;-67
2024/01/08 02:00:44;;;;;;;6.80;3.90;;;-0.70;16.40;;;;;;5046625;28;20458;-67
2024/01/08 02:03:11;;;;;;;6.23;4.03;;;-0.70;16.50;;;;;;5046845;28;21026;-67
2024/01/08 02:05:39;;;;;;;8.40;4.83;;;-0.80;16.60;;;;;;5046629;28;20826;-67
2024/01/08 02:08:07;;;;;;;7.00;4.27;;;-0.80;16.60;;;;;;5047731;28;20852;-67
2024/01/08 02:10:34;;;;;;;7.80;4.17;;;-0.80;16.40;;;;;;5045902;28;20459;-67
2024/01/08 02:13:02;;;;;;;7.33;4.37;;;-0.80;16.30;;;;;;5049528;28;20461;-67
2024/01/08 02:15:28;;;;;;;7.70;4.30;;;-0.80;16.50;;;;;;5049124;28;20490;-68
2024/01/08 02:17:55;;;;;;;7.83;4.80;;;-0.80;16.70;;;;;;5047270;28;20481;-67
2024/01/08 02:20:22;;;;;;;8.77;4.50;;;-0.80;16.60;;;;;;5046831;28;20458;-67
2024/01/08 02:22:50;;;;;;;7.67;4.30;;;-0.80;16.60;;;;;;5048292;28;20465;-66
2024/01/08 02:25:17;;;;;;;7.17;4.10;;;-0.80;16.50;;;;;;5046891;28;20465;-67
2024/01/08 02:27:44;;;;;;;7.60;4.00;;;-0.90;16.30;;;;;;5046564;28;20879;-67
2024/01/08 02:30:11;;;;;;;7.53;4.60;;;-0.90;16.60;;;;;;5048235;28;20462;-67
2024/01/08 02:32:38;;;;;;;7.40;4.10;;;-0.90;16.30;;;;;;5046331;28;20466;-67
2024/01/08 02:35:05;;;;;;;6.77;4.30;;;-0.90;16.20;;;;;;5047964;28;20481;-67
2024/01/08 02:37:32;;;;;;;6.87;3.70;;;-0.90;16.00;;;;;;5046296;28;20482;-67
2024/01/08 02:40:00;;;;;;;7.07;3.93;;;-1.00;16.10;;;;;;5049869;28;21098;-67
2024/01/08 02:42:27;;;;;;;7.27;3.43;;;-1.10;15.30;;;;;;5050434;28;20469;-67
2024/01/08 02:44:53;;;;;;;7.37;4.20;;;-1.10;15.60;;;;;;5047925;28;20453;-67
2024/01/08 02:47:20;;;;;;;6.10;3.47;;;-1.10;16.00;;;;;;5047788;28;20914;-67
2024/01/08 02:49:47;;;;;;;7.13;4.27;;;-1.10;16.30;;;;;;5049753;28;20466;-67
2024/01/08 02:52:13;;;;;;;5.67;3.63;;;-1.10;16.40;;;;;;5044275;28;20470;-67
2024/01/08 02:54:40;;;;;;;7.00;4.20;;;-1.10;16.10;;;;;;5044422;28;20919;-67
2024/01/08 02:57:08;;;;;;;6.93;4.23;;;-1.10;16.10;;;;;;5046470;28;20481;-67
2024/01/08 02:59:35;;;;;;;6.77;4.20;;;-1.10;16.10;;;;;;5047980;28;20462;-67
2024/01/08 03:02:01;;;;;;;5.93;3.30;;;-1.10;16.30;;;;;;5046885;28;20478;-67
2024/01/08 03:04:28;;;;;;;7.90;3.67;;;-1.10;16.60;;;;;;5046201;28;20805;-67
2024/01/08 03:06:54;;;;;;;8.00;4.40;;;-1.10;16.60;;;;;;5045509;28;20488;-67
2024/01/08 03:09:21;;;;;;;7.67;4.03;;;-1.10;16.50;;;;;;5047166;28;20474;-67
2024/01/08 03:11:48;;;;;;;6.67;3.83;;;-1.10;16.50;;;;;;5047750;28;20473;-67
2024/01/08 03:14:16;;;;;;;6.57;3.87;;;-1.10;16.10;;;;;;5047810;28;20840;-67
2024/01/08 03:16:42;;;;;;;8.10;4.07;;;-1.00;16.00;;;;;;5047248;28;20482;-67
2024/01/08 03:19:09;;;;;;;7.07;4.20;;;-0.90;15.90;;;;;;5045117;28;20473;-67
2024/01/08 03:21:36;;;;;;;6.40;3.37;;;-1.00;15.90;;;;;;5046201;28;20466;-67
2024/01/08 03:24:03;;;;;;;7.07;4.00;;;-1.00;15.80;;;;;;5047986;28;20462;-66
2024/01/08 03:26:29;;;;;;;6.00;3.90;;;-1.00;15.80;;;;;;5046777;28;20624;-67
2024/01/08 03:28:56;;;;;;;6.43;3.73;;;-1.00;15.70;;;;;;5046397;28;20465;-67
2024/01/08 03:31:24;;;;;;;6.67;4.20;;;-1.00;15.40;;;;;;5045787;28;20846;-67
2024/01/08 03:33:51;;;;;;;6.57;3.80;;;-1.10;15.40;;;;;;5047588;28;20470;-67
2024/01/08 03:36:17;;;;;;;5.40;3.37;;;-1.00;15.30;;;;;;5048451;28;20473;-67
2024/01/08 03:38:44;;;;;;;7.10;4.20;;;-1.00;15.40;;;;;;5047220;28;20466;-67
2024/01/08 03:41:11;;;;;;;6.03;3.50;;;-1.10;15.10;;;;;;5050119;28;20458;-67
2024/01/08 03:43:37;;;;;;;7.10;3.90;;;-1.10;15.50;;;;;;5047598;28;20457;-67
2024/01/08 03:46:04;;;;;;;6.77;4.10;;;-1.10;15.80;;;;;;5048281;28;20449;-67
2024/01/08 03:48:32;;;;;;;6.23;3.67;;;-1.10;15.80;;;;;;5046883;28;20469;-67
2024/01/08 03:50:59;;;;;;;6.00;3.50;;;-1.10;16.00;;;;;;5040961;28;20465;-67
2024/01/08 03:53:26;;;;;;;6.13;3.47;;;-1.00;15.90;;;;;;5047602;28;20458;-67
2024/01/08 03:55:52;;;;;;;7.23;4.20;;;-1.00;15.90;;;;;;5048687;28;20481;-67
2024/01/08 03:58:19;;;;;;;5.33;3.27;;;-1.10;15.90;;;;;;5046174;28;20474;-67
2024/01/08 04:00:46;;;;;;;6.43;3.60;;;-1.00;15.80;;;;;;5046608;28;20904;-67
2024/01/08 04:03:13;;;;;;;5.90;3.60;;;-1.00;15.50;;;;;;5044919;28;20459;-67
2024/01/08 04:05:41;;;;;;;9.03;4.03;;;-1.00;15.60;;;;;;5045370;28;20485;-67
2024/01/08 04:08:08;;;;;;;6.70;3.90;;;-1.00;15.70;;;;;;5043903;28;20486;-67
2024/01/08 04:10:35;;;;;;;8.07;4.43;;;-1.00;15.70;;;;;;5046599;28;20512;-67
2024/01/08 04:13:01;;;;;;;6.33;3.77;;;-1.00;15.60;;;;;;5044500;28;20474;-67
2024/01/08 04:15:28;;;;;;;6.70;3.50;;;-1.00;15.80;;;;;;5040982;28;20496;-67
2024/01/08 04:17:55;;;;;;;6.33;3.43;;;-1.10;15.40;;;;;;5043819;28;20481;-67
2024/01/08 04:20:21;;;;;;;6.97;3.53;;;-1.10;15.30;;;;;;5046372;28;20462;-67
2024/01/08 04:22:51;;;;;;;5.83;3.40;;;-1.00;15.50;;;;;;5045372;28;20466;-67
2024/01/08 04:25:17;;;;;;;5.70;3.43;;;-1.00;15.60;;;;;;5046342;28;20461;-67
2024/01/08 04:27:44;;;;;;;6.97;3.70;;;-1.00;15.70;;;;;;5047496;28;20489;-67
2024/01/08 04:30:12;;;;;;;6.90;3.30;;;-1.10;15.80;;;;;;5042812;28;20954;-67
2024/01/08 04:32:38;;;;;;;6.67;3.83;;;-1.00;15.90;;;;;;5045037;28;20462;-67
2024/01/08 04:35:06;;;;;;;7.23;4.00;;;-1.00;15.80;;;;;;5043192;28;20533;-67
2024/01/08 04:37:33;;;;;;;9.30;3.70;;;-1.00;15.90;;;;;;5047615;28;20478;-67
2024/01/08 04:40:02;;;;;;;7.00;3.80;;;-1.00;15.90;;;;;;5046039;28;20512;-67
2024/01/08 04:42:29;;;;;;;5.77;3.77;;;-1.00;15.70;;;;;;5046645;28;21174;-67
2024/01/08 04:44:56;;;;;;;8.63;4.90;;;-0.90;15.50;;;;;;5045259;28;20458;-67
2024/01/08 04:47:23;;;;;;;6.80;4.13;;;-1.00;15.40;;;;;;5045960;28;20481;-67
2024/01/08 04:49:49;;;;;;;6.27;3.80;;;-1.00;15.20;;;;;;5044998;28;21015;-67
2024/01/08 04:52:16;;;;;;;7.10;4.10;;;-1.00;15.00;;;;;;5046052;28;20460;-67
2024/01/08 04:54:43;;;;;;;7.00;3.90;;;-1.00;15.20;;;;;;5046873;28;20551;-67
2024/01/08 04:57:11;;;;;;;8.37;5.57;;;-1.00;15.00;;;;;;5045931;28;20497;-67
2024/01/08 04:59:40;;;;;;;7.47;3.43;;;-1.00;15.30;;;;;;5045538;28;20457;-67
2024/01/08 05:02:08;;;;;;;7.20;3.70;;;-1.00;15.10;;;;;;5043842;28;20899;-67
2024/01/08 05:04:34;;;;;;;7.37;4.20;;;-1.00;15.10;;;;;;5046829;28;20881;-67
2024/01/08 05:07:02;;;;;;;6.40;4.30;;;-1.00;14.90;;;;;;5046265;28;20478;-67
2024/01/08 05:09:29;;;;;;;6.70;4.20;;;-1.00;15.00;;;;;;5046669;28;20557;-67
2024/01/08 05:11:56;;;;;;;6.40;4.03;;;-1.00;15.10;;;;;;5044964;28;20477;-67
2024/01/08 05:14:24;;;;;;;6.57;3.90;;;-1.00;14.90;;;;;;5043441;28;20474;-67
2024/01/08 05:16:50;;;;;;;7.97;3.90;;;-1.00;14.90;;;;;;5044964;28;20493;-67
2024/01/08 05:19:17;;;;;;;7.97;4.00;;;-1.00;14.70;;;;;;5050292;28;20478;-67
2024/01/08 05:21:44;;;;;;;7.40;4.00;;;-1.00;14.60;;;;;;5043130;28;20465;-71
2024/01/08 05:24:11;;;;;;;10.60;4.30;;;-1.00;14.70;;;;;;5046545;28;20785;-66
2024/01/08 05:26:37;;;;;;;10.63;4.27;;;-1.10;14.70;;;;;;5046624;28;20560;-66
2024/01/08 05:29:04;;;;;;;7.70;3.77;;;-1.10;14.80;;;;;;5045786;28;20493;-67
2024/01/08 05:31:32;;;;;;;7.23;4.60;;;-1.10;14.80;;;;;;5048575;28;20511;-66
2024/01/08 05:33:59;;;;;;;6.87;3.80;;;-1.10;15.00;;;;;;5047827;28;20497;-70
2024/01/08 05:36:28;;;;;;;6.03;3.70;;;-1.10;15.10;;;;;;5047713;28;20473;-70
2024/01/08 05:38:59;;;;;;;7.77;4.40;;;-1.10;15.10;;;;;;5048885;28;20489;-70
2024/01/08 05:41:26;;;;;;;7.83;4.30;;;-1.00;14.90;;;;;;5047511;28;20509;-69
2024/01/08 05:43:52;;;;;;;6.23;4.10;;;-1.00;15.00;;;;;;5046052;28;20462;-68
2024/01/08 05:46:19;;;;;;;8.70;4.00;;;-1.00;15.00;;;;;;5048878;28;20493;-69
2024/01/08 05:48:47;;;;;;;9.17;4.17;;;-1.10;15.00;;;;;;5046044;28;21004;-70
2024/01/08 05:51:14;;;;;;;6.97;4.10;;;-1.10;15.00;;;;;;5047938;28;20469;-70
2024/01/08 05:53:40;;;;;;;6.80;4.50;;;-1.10;14.90;;;;;;5048066;28;20474;-70
2024/01/08 05:56:07;;;;;;;7.13;4.40;;;-1.10;14.80;;;;;;5049162;28;20474;-70
2024/01/08 05:58:34;;;;;;;9.13;4.93;;;-1.10;15.50;;;;;;5048631;28;20454;-70
2024/01/08 06:01:01;;;;;;;7.97;4.30;;;-1.10;15.00;;;;;;5044101;28;20497;-70
2024/01/08 06:03:27;;;;;;;7.97;4.10;;;-1.10;15.00;;;;;;5046823;28;20477;-70
2024/01/08 06:05:55;;;;;;;6.87;3.90;;;-1.10;15.00;;;;;;5044486;28;20869;-70
2024/01/08 06:08:22;;;;;;;7.13;4.20;;;-1.10;14.90;;;;;;5049792;28;20454;-70
2024/01/08 06:10:49;;;;;;;7.60;4.50;;;-1.10;15.00;;;;;;5049408;28;20465;-70
2024/01/08 06:13:16;;;;;;;6.40;3.90;;;-1.10;15.10;;;;;;5047564;28;20458;-70
2024/01/08 06:15:42;;;;;;;7.43;4.77;;;-1.10;15.10;;;;;;5050407;28;20947;-69
2024/01/08 06:18:09;;;;;;;8.53;4.50;;;-1.10;15.10;;;;;;5048872;28;21174;-70
2024/01/08 06:20:36;;;;;;;7.20;4.10;;;-1.10;15.00;;;;;;5045861;28;20463;-71
2024/01/08 06:23:04;;;;;;;10.43;4.53;;;-1.10;14.90;;;;;;5044374;28;20462;-70
2024/01/08 06:25:31;;;;;;;9.03;4.47;;;-1.10;15.00;;;;;;5046089;28;20459;-70
2024/01/08 06:27:58;;;;;;;7.30;4.40;;;-1.10;15.10;;;;;;5059464;28;20485;-70
2024/01/08 06:30:24;;;;;;;9.47;5.73;;;-1.10;14.80;;;;;;5063093;28;20479;-70
2024/01/08 06:32:51;;;;;;;6.40;4.00;;;-1.10;15.00;;;;;;5046053;28;20592;-70
2024/01/08 06:35:18;;;;;;;8.00;4.63;;;-1.10;14.60;;;;;;5049395;28;20464;-68
2024/01/08 06:37:45;;;;;;;8.20;4.70;;;-1.10;14.50;;;;;;5043074;28;20488;-68
2024/01/08 06:40:13;;;;;;;6.20;4.20;;;-1.10;14.80;;;;;;5047017;28;20492;-72
2024/01/08 06:42:40;;;;;;;6.57;4.00;;;-1.10;15.00;;;;;;5043959;28;20599;-70
2024/01/08 06:45:07;;;;;;;7.60;4.93;;;-1.10;14.90;;;;;;5046688;28;20453;-69
2024/01/08 06:47:34;;;;;;;10.20;5.10;;;-1.20;14.90;;;;;;5040573;28;20501;-71
2024/01/08 06:50:00;;;;;;;8.20;5.20;;;-1.10;15.10;;;;;;5047502;28;20455;-70
2024/01/08 06:52:27;;;;;;;8.50;4.37;;;-1.10;15.30;;;;;;5048450;28;20465;-70
2024/01/08 06:54:54;;;;;;;8.40;5.30;;;-1.10;15.30;;;;;;5044235;28;22331;-70
2024/01/08 06:57:22;;;;;;;7.27;4.40;;;-1.10;15.20;;;;;;5047681;28;20478;-70
2024/01/08 06:59:49;;;;;;;7.40;4.83;;;-1.10;15.20;;;;;;5046020;28;20498;-70
2024/01/08 07:02:16;;;;;;;6.80;4.30;;;-1.10;15.10;;;;;;5042072;28;20485;-71
2024/01/08 07:04:43;;;;;;;8.70;5.27;;;-1.10;15.30;;;;;;5044312;28;20470;-70
2024/01/08 07:07:10;;;;;;;7.73;4.37;;;-1.10;15.40;;;;;;5044622;28;20484;-69
2024/01/08 07:09:37;;;;;;;7.40;4.60;;;-1.00;15.50;;;;;;5040411;28;20469;-69
2024/01/08 07:12:05;;;;;;;10.43;5.20;;;-1.00;15.40;;;;;;5044975;28;20473;-69
2024/01/08 07:14:33;;;;;;;7.33;5.10;;;-1.00;15.30;;;;;;5044067;28;20550;-71
2024/01/08 07:17:00;;;;;;;8.03;5.30;;;-1.00;15.40;;;;;;5044282;28;20975;-71
2024/01/08 07:19:27;;;;;;;7.83;5.27;;;-1.00;15.60;;;;;;5046381;28;20474;-71
2024/01/08 07:21:54;;;;;;;10.00;5.20;;;-1.00;15.50;;;;;;5047579;28;20481;-71
2024/01/08 07:24:20;;;;;;;8.33;4.90;;;-0.90;15.30;;;;;;5044571;28;20954;-72
2024/01/08 07:26:47;;;;;;;11.13;6.03;;;-1.00;15.20;;;;;;5047716;28;20479;-73
2024/01/08 07:29:14;;;;;;;9.63;4.83;;;-0.90;15.40;;;;;;5047085;28;20469;-72
2024/01/08 07:31:42;;;;;;;9.47;4.67;;;-0.90;15.50;;;;;;5047122;28;20462;-73
2024/01/08 07:34:09;;;;;;;9.77;5.63;;;-0.90;15.40;;;;;;5046936;28;20466;-71
2024/01/08 07:36:36;;;;;;;6.77;4.50;;;-0.90;15.30;;;;;;5046158;28;21044;-70
2024/01/08 07:39:03;;;;;;;7.27;5.00;;;-0.90;15.00;;;;;;5042303;28;20979;-71
2024/01/08 07:41:29;;;;;;;7.00;4.27;;;-0.90;14.70;;;;;;5047425;28;20462;-71
2024/01/08 07:43:56;;;;;;;10.77;5.33;;;-1.00;14.40;;;;;;5047208;28;20493;-71
2024/01/08 07:46:23;;;;;;;8.40;5.03;;;-1.00;14.50;;;;;;5047048;28;20474;-71
2024/01/08 07:48:51;;;;;;;8.90;5.47;;;-1.00;14.70;;;;;;5047417;28;20458;-71
2024/01/08 07:51:21;;;;;;;7.57;4.83;;;-1.00;14.60;;;;;;5042819;28;20543;-71
2024/01/08 07:53:48;;;;;;;8.90;5.73;;;-1.00;14.30;;;;;;5045518;28;20462;-72
2024/01/08 07:56:15;;;;;;;8.00;5.40;;;-1.00;14.30;;;;;;5044674;28;20504;-71
2024/01/08 07:58:42;;;;;;;8.00;5.03;;;-1.00;14.50;;;;;;5045646;28;20462;-71
2024/01/08 08:01:08;;;;;;;8.87;5.33;;;-1.00;14.60;;;;;;5040770;28;20474;-72
2024/01/08 08:03:35;;;;;;;8.70;4.93;;;-0.90;14.40;;;;;;5047102;28;20460;-71
2024/01/08 08:06:04;;;;;;;7.20;5.07;;;-0.90;14.40;;;;;;5044669;28;20462;-70
2024/01/08 08:08:34;;;;;;;8.77;5.40;;;-0.90;14.50;;;;;;5043969;28;20473;-70
2024/01/08 08:11:02;;;;;;;7.33;4.50;;;-0.90;14.60;;;;;;5042064;28;20912;-69
2024/01/08 08:13:28;;;;;;;8.27;4.83;;;-0.90;14.60;;;;;;5043093;28;20501;-70
2024/01/08 08:15:55;;;;;;;8.10;5.10;;;-0.80;14.50;;;;;;5044186;28;20466;-70
2024/01/08 08:18:22;;;;;;;7.77;5.20;;;-0.90;14.00;;;;;;5046320;28;20470;-71
2024/01/08 08:20:49;;;;;;;9.90;5.47;;;-0.80;13.90;;;;;;5045282;28;20453;-70
2024/01/08 08:23:17;;;;;;;8.33;5.43;;;-0.80;14.10;;;;;;5044094;28;20462;-70
2024/01/08 08:25:44;;;;;;;9.33;4.83;;;-0.80;14.10;;;;;;5040780;28;20471;-70
2024/01/08 08:28:10;;;;;;;9.20;5.50;;;-0.80;14.20;;;;;;5036200;28;20478;-69
2024/01/08 08:30:37;;;;;;;8.23;5.27;;;-0.70;13.80;;;;;;5046918;28;20470;-69
2024/01/08 08:33:04;;;;;;;8.30;5.30;;;-0.60;13.60;;;;;;5046553;28;20466;-70
2024/01/08 08:35:31;;;;;;;9.50;4.97;;;-0.60;13.30;;;;;;5039003;28;20469;-67
2024/01/08 08:37:58;;;;;;;9.00;4.73;;;-0.60;13.30;;;;;;5045811;28;20516;-66
2024/01/08 08:40:26;;;;;;;9.07;5.30;;;-0.50;13.70;;;;;;5050762;28;20477;-65
2024/01/08 08:42:54;;;;;;;8.43;5.50;;;-0.60;13.40;;;;;;5044505;28;20465;-71
2024/01/08 08:45:20;;;;;;;8.00;5.03;;;-0.50;12.90;;;;;;5047768;28;20458;-70
2024/01/08 08:47:47;;;;;;;6.43;4.10;;;-0.60;12.60;;;;;;5049613;28;20481;-69
2024/01/08 08:50:14;;;;;;;8.17;4.90;;;-0.50;13.10;;;;;;5045966;28;20460;-71
2024/01/08 08:52:43;;;;;;;8.47;4.90;;;-0.50;13.20;;;;;;5043436;28;20470;-68
2024/01/08 08:55:10;;;;;;;8.90;5.23;;;-0.50;12.70;;;;;;5047247;28;20453;-68
2024/01/08 08:57:38;;;;;;;9.07;4.90;;;-0.60;12.70;;;;;;5048995;28;21001;-70
2024/01/08 09:00:08;;;;;;;8.60;5.40;;;-0.50;13.70;;;;;;5045334;28;20466;-70
2024/01/08 09:02:35;;;;;;;8.63;5.23;;;-0.60;13.10;;;;;;5040994;28;20474;-70
2024/01/08 09:05:02;;;;;;;8.80;4.87;;;-0.60;12.60;;;;;;5049237;28;20466;-69
2024/01/08 09:07:29;;;;;;;7.57;4.33;;;-0.60;13.00;;;;;;5045419;28;20496;-70
2024/01/08 09:09:56;;;;;;;7.70;4.67;;;-0.60;13.20;;;;;;5045055;28;20477;-69
2024/01/08 09:12:23;;;;;;;7.67;4.53;;;-0.60;13.10;;;;;;5048403;28;20461;-71
2024/01/08 09:14:51;;;;;;;8.13;4.53;;;-0.60;13.30;;;;;;5049664;28;20547;-70
2024/01/08 09:17:18;;;;;;;8.70;5.17;;;-0.70;13.60;;;;;;5046573;28;20482;-71
2024/01/08 09:19:45;;;;;;;8.70;5.07;;;-0.60;13.90;;;;;;5051385;28;20450;-72
2024/01/08 09:22:11;;;;;;;7.30;4.40;;;-0.60;13.90;;;;;;5048198;28;20465;-68
2024/01/08 09:24:38;;;;;;;7.70;5.60;;;-0.60;13.90;;;;;;5050389;28;20464;-70
2024/01/08 09:27:05;;;;;;;9.07;4.93;;;-0.60;14.00;;;;;;5049826;28;20482;-70
2024/01/08 09:29:32;;;;;;;8.63;5.20;;;-0.50;13.90;;;;;;5059840;28;20457;-69
2024/01/08 09:32:00;;;;;;;9.10;5.77;;;-0.50;13.40;;;;;;5054573;28;20480;-67
2024/01/08 09:34:27;;;;;;;16.30;5.80;;;-0.50;13.40;;;;;;5059915;28;20461;-68
2024/01/08 09:36:55;;;;;;;8.80;6.37;;;-0.50;13.50;;;;;;5051678;28;20513;-68
2024/01/08 09:39:22;;;;;;;9.03;5.40;;;-0.50;13.60;;;;;;5050262;28;21015;-69
2024/01/08 09:41:49;;;;;;;7.80;4.80;;;-0.50;13.60;;;;;;5049177;28;20458;-68
2024/01/08 09:44:19;;;;;;;11.50;6.20;;;-0.40;13.90;;;;;;5048429;28;20470;-68
2024/01/08 09:46:50;;;;;;;9.13;6.10;;;-0.40;13.60;;;;;;5042544;28;20488;-68
2024/01/08 09:49:20;;;;;;;8.47;5.47;;;-0.40;13.80;;;;;;5046908;28;20553;-68
2024/01/08 09:51:47;;;;;;;9.87;5.63;;;-0.30;14.00;;;;;;5052206;28;20836;-68
2024/01/08 09:54:14;;;;;;;11.00;5.57;;;-0.30;13.90;;;;;;5045759;28;20472;-68
2024/01/08 09:56:40;;;;;;;8.40;5.10;;;-0.30;13.40;;;;;;5050079;28;20478;-67
2024/01/08 09:59:07;;;;;;;8.10;5.20;;;-0.30;13.60;;;;;;5042515;28;20469;-68
2024/01/08 10:01:34;;;;;;;7.80;5.13;;;-0.20;13.90;;;;;;5038607;28;20466;-68
2024/01/08 10:04:01;;;;;;;7.83;4.57;;;-0.10;14.10;;;;;;5047971;28;20547;-68
2024/01/08 10:06:29;;;;;;;7.67;4.30;;;0.00;14.00;;;;;;5046319;28;21055;-68
2024/01/08 10:08:57;;;;;;;9.33;4.57;;;0.10;13.70;;;;;;5041788;28;20470;-68
2024/01/08 10:11:25;;;;;;;8.47;4.57;;;0.30;13.60;;;;;;5046277;28;20466;-68
2024/01/08 10:13:52;;;;;;;6.13;3.77;;;0.40;13.40;;;;;;5044907;28;20535;-68
2024/01/08 10:16:19;;;;;;;8.97;4.93;;;0.40;12.90;;;;;;5047904;28;20485;-68
2024/01/08 10:18:47;;;;;;;7.90;4.63;;;0.40;12.80;;;;;;5044815;28;21182;-68
2024/01/08 10:21:15;;;;;;;10.20;4.57;;;0.40;12.90;;;;;;5043935;28;20537;-70
2024/01/08 10:23:43;;;;;;;9.70;5.17;;;0.40;13.20;;;;;;5044025;28;20477;-68
2024/01/08 10:26:12;;;;;;;6.97;4.47;;;0.30;13.20;;;;;;5047721;28;20463;-70
2024/01/08 10:28:40;;;;;;;13.03;5.90;;;0.40;13.10;;;;;;5043330;28;20458;-70
2024/01/08 10:31:08;;;;;;;9.33;5.30;;;0.30;13.00;;;;;;5046420;28;20486;-69
2024/01/08 10:33:35;;;;;;;8.07;4.50;;;0.40;13.10;;;;;;5047839;28;20930;-69
2024/01/08 10:36:04;;;;;;;8.67;5.43;;;0.40;13.00;;;;;;5044042;28;20459;-70
2024/01/08 10:38:32;;;;;;;6.87;4.87;;;0.40;12.50;;;;;;5042990;28;20525;-70
2024/01/08 10:41:01;;;;;;;7.83;4.93;;;0.40;12.40;;;;;;5048533;28;20531;-69
2024/01/08 10:43:28;;;;;;;9.80;5.10;;;0.30;12.50;;;;;;5042112;28;20933;-69
2024/01/08 10:45:58;;;;;;;10.70;7.67;;;0.30;12.40;;;;;;5046322;28;20588;-70
2024/01/08 10:48:30;;;;;;;9.20;5.83;;;0.20;12.60;;;;;;5047519;28;20465;-72
2024/01/08 10:50:58;;;;;;;11.53;5.60;;;0.20;12.90;;;;;;5047788;28;20466;-72
2024/01/08 10:53:39;;;;;;;9.23;5.13;;;0.20;12.80;;;;;;5047602;28;20549;-70
2024/01/08 10:56:12;;;;;;;9.50;5.37;;;0.30;12.90;;;;;;5046510;28;20470;-69
2024/01/08 10:58:44;;;;;;;8.37;5.50;;;0.30;12.90;;;;;;5048214;28;20469;-69
2024/01/08 11:01:11;;;;;;;9.70;5.27;;;0.20;12.70;;;;;;5044249;28;20997;-69
2024/01/08 11:03:38;;;;;;;10.30;4.90;;;0.20;12.90;;;;;;5041881;28;20470;-69
2024/01/08 11:06:06;;;;;;;8.13;4.77;;;0.30;12.80;;;;;;5040982;28;20469;-70
2024/01/08 11:08:33;;;;;;;10.57;5.83;;;0.30;12.80;;;;;;5047650;28;20454;-71
2024/01/08 11:11:09;;;;;;;8.40;5.37;;;0.30;12.70;;;;;;5048357;28;20464;-69
2024/01/08 11:13:36;;;;;;;8.37;5.27;;;0.20;12.30;;;;;;5046519;28;20817;-69
2024/01/08 11:16:07;;;;;;;11.03;5.50;;;0.20;12.50;;;;;;5046238;28;20545;-68
2024/01/08 11:18:34;;;;;;;11.07;6.20;;;0.10;12.90;;;;;;5046927;28;20539;-69
2024/01/08 11:21:01;;;;;;;9.60;5.03;;;0.10;13.10;;;;;;5046900;28;20461;-69
2024/01/08 11:23:33;;;;;;;12.67;5.73;;;0.10;13.30;;;;;;5047761;28;20458;-69
2024/01/08 11:26:02;;;;;;;11.13;5.80;;;0.10;13.00;;;;;;5040764;28;20493;-68
2024/01/08 11:28:31;;;;;;;10.17;6.07;;;0.10;13.40;;;;;;5043094;28;20462;-68
2024/01/08 11:31:35;;;;;;;9.33;5.30;;;0.20;13.50;;;;;;5044526;28;20473;-70
2024/01/08 11:34:53;;;;;;;8.90;4.97;;;0.20;13.10;;;;;;5004312;28;20477;-70
2024/01/08 11:37:31;;;;;;;10.43;5.20;;;0.20;13.00;;;;;;5043021;28;20489;-68
2024/01/08 11:39:58;;;;;;;11.90;5.47;;;0.20;13.10;;;;;;5043385;28;20457;-68
2024/01/08 11:42:25;;;;;;;8.30;5.20;;;0.20;13.10;;;;;;5044624;28;20458;-72
2024/01/08 11:44:53;;;;;;;10.27;6.90;;;0.20;12.90;;;;;;5047871;28;20462;-69
2024/01/08 11:47:20;;;;;;;8.77;6.13;;;0.20;12.80;;;;;;5044769;28;20509;-68
2024/01/08 11:49:50;;;;;;;11.47;7.80;;;0.20;13.00;;;;;;5045319;28;20484;-69
2024/01/08 11:52:17;;;;;;;9.03;5.70;;;0.20;13.20;;;;;;5045912;28;20454;-68
2024/01/08 11:54:48;;;;;;;9.10;5.00;;;0.30;13.30;;;;;;5041990;28;20458;-69
2024/01/08 11:57:15;;;;;;;12.63;7.50;;;0.30;13.00;;;;;;5036901;28;20494;-69
2024/01/08 11:59:42;;;;;;;10.30;6.30;;;0.30;12.80;;;;;;5044123;28;20470;-70
2024/01/08 12:02:14;;;;;;;10.50;6.40;;;0.30;13.10;;;;;;5049083;28;20481;-69
2024/01/08 12:04:41;;;;;;;9.20;5.40;;;0.30;13.20;;;;;;5040947;28;21125;-69
2024/01/08 12:07:11;;;;;;;8.63;5.50;;;0.30;13.00;;;;;;5044872;28;20856;-70
2024/01/08 12:09:38;;;;;;;8.70;5.33;;;0.20;12.80;;;;;;5045083;28;20462;-69
2024/01/08 12:12:07;;;;;;;8.40;5.63;;;0.20;13.10;;;;;;5042860;28;20477;-70
2024/01/08 12:14:34;;;;;;;9.90;5.93;;;0.10;12.80;;;;;;5048455;28;20461;-68
2024/01/08 12:17:01;;;;;;;8.67;5.80;;;0.10;13.00;;;;;;5041146;28;20478;-70
2024/01/08 12:19:41;;;;;;;12.67;6.43;;;0.10;13.20;;;;;;5044018;28;20466;-68
2024/01/08 12:22:10;;;;;;;8.50;5.77;;;0.10;13.30;;;;;;5046324;28;20465;-70
2024/01/08 12:24:37;;;;;;;9.63;6.30;;;0.10;13.30;;;;;;5047102;28;20454;-69
2024/01/08 12:27:05;;;;;;;8.20;5.50;;;0.00;13.30;;;;;;5040444;28;20477;-69
2024/01/08 12:29:32;;;;;;;10.80;6.60;;;0.00;13.10;;;;;;5044397;28;20477;-69
2024/01/08 12:31:59;;;;;;;9.70;6.27;;;0.00;13.20;;;;;;5044652;28;20470;-69
2024/01/08 12:34:30;;;;;;;9.77;6.47;;;0.00;13.40;;;;;;5047542;28;20465;-67
2024/01/08 12:36:59;;;;;;;11.87;6.50;;;0.00;13.50;;;;;;5051724;28;20608;-68
2024/01/08 12:39:28;;;;;;;11.43;7.13;;;0.00;13.50;;;;;;5047061;28;20490;-68
2024/01/08 12:41:57;;;;;;;9.00;5.97;;;0.00;13.50;;;;;;5047055;28;20465;-68
2024/01/08 12:44:26;;;;;;;8.90;6.00;;;0.00;13.50;;;;;;5044779;28;20454;-68
2024/01/08 12:46:53;;;;;;;10.13;6.50;;;0.00;13.70;;;;;;5045300;28;20505;-68
2024/01/08 12:49:20;;;;;;;8.30;5.83;;;0.00;13.60;;;;;;5045827;28;20466;-68